createdAt,value
2023-02-06T00:00:33.726Z,6.87
2023-02-06T00:02:59.504Z,5.87
2023-02-06T00:05:25.246Z,5.90
2023-02-06T00:07:50.982Z,5.80
2023-02-06T00:10:16.703Z,6.07
2023-02-06T00:12:42.408Z,6.50
2023-02-06T00:15:08.436Z,6.10
2023-02-06T00:17:35.804Z,6.43
2023-02-06T00:20:01.754Z,6.13
2023-02-06T00:22:27.482Z,6.07
2023-02-06T00:24:53.263Z,6.00
2023-02-06T00:27:19.003Z,6.47
2023-02-06T00:29:44.743Z,6.57
2023-02-06T00:32:10.449Z,6.30
2023-02-06T00:34:36.152Z,5.90
2023-02-06T00:37:01.868Z,6.90
2023-02-06T00:39:27.641Z,6.77
2023-02-06T00:41:55.060Z,6.73
2023-02-06T00:44:21.262Z,5.33
2023-02-06T00:46:47.293Z,7.93
2023-02-06T00:49:13.292Z,6.23
2023-02-06T00:51:39.249Z,6.57
2023-02-06T00:54:05.477Z,7.10
2023-02-06T00:56:31.203Z,5.83
2023-02-06T00:58:56.943Z,6.07
2023-02-06T01:01:22.722Z,6.50
2023-02-06T01:03:48.440Z,5.50
2023-02-06T01:06:14.198Z,6.90
2023-02-06T01:08:39.967Z,6.53
2023-02-06T01:11:24.581Z,7.93
2023-02-06T01:13:50.614Z,6.60
2023-02-06T01:16:19.959Z,5.93
2023-02-06T01:18:45.777Z,6.57
2023-02-06T01:21:12.464Z,7.13
2023-02-06T01:23:41.725Z,6.57
2023-02-06T01:26:11.238Z,6.83
2023-02-06T01:28:37.863Z,6.97
2023-02-06T01:31:33.103Z,7.00
2023-02-06T01:33:59.943Z,5.90
2023-02-06T01:36:26.292Z,6.53
2023-02-06T01:38:52.211Z,6.70
2023-02-06T01:41:19.780Z,7.20
2023-02-06T01:43:46.882Z,8.43
2023-02-06T01:46:12.711Z,6.67
2023-02-06T01:48:53.079Z,7.50
2023-02-06T01:51:20.515Z,5.75
2023-02-06T01:53:48.193Z,6.53
2023-02-06T01:56:18.713Z,6.37
2023-02-06T02:01:10.678Z,5.53
2023-02-06T02:03:37.677Z,6.43
2023-02-06T02:06:08.301Z,6.17
2023-02-06T02:08:38.744Z,5.80
2023-02-06T02:13:31.501Z,6.20
2023-02-06T02:15:59.011Z,6.57
2023-02-06T02:18:33.597Z,6.33
2023-02-06T02:21:11.224Z,5.77
2023-02-06T02:23:55.414Z,5.97
2023-02-06T02:26:50.337Z,5.90
2023-02-06T02:29:28.589Z,6.70
2023-02-06T02:32:22.294Z,6.13
2023-02-06T02:34:57.159Z,6.37
2023-02-06T02:37:27.294Z,7.17
2023-02-06T02:40:02.209Z,6.22
2023-02-06T02:42:30.798Z,6.63
2023-02-06T02:45:09.833Z,6.23
2023-02-06T02:47:40.480Z,6.70
2023-02-06T02:50:06.617Z,6.57
2023-02-06T02:52:32.434Z,6.73
2023-02-06T02:54:58.183Z,7.47
2023-02-06T02:57:27.898Z,6.87
2023-02-06T02:59:54.080Z,6.60
2023-02-06T03:02:23.458Z,6.60
2023-02-06T03:04:52.224Z,6.63
2023-02-06T03:07:28.873Z,6.77
2023-02-06T03:10:05.061Z,5.97
2023-02-06T03:12:42.812Z,5.97
2023-02-06T03:15:26.643Z,5.80
2023-02-06T03:17:55.974Z,5.67
2023-02-06T03:20:22.463Z,5.07
2023-02-06T03:22:49.913Z,4.80
2023-02-06T03:25:19.173Z,5.63
2023-02-06T03:27:45.254Z,5.63
2023-02-06T03:30:13.088Z,5.43
2023-02-06T03:32:44.690Z,5.13
2023-02-06T03:35:21.728Z,6.30
2023-02-06T03:37:48.625Z,5.50
2023-02-06T03:40:14.847Z,4.90
2023-02-06T03:42:44.331Z,4.30
2023-02-06T03:45:16.687Z,5.13
2023-02-06T03:47:43.738Z,4.33
2023-02-06T03:50:10.137Z,5.23
2023-02-06T03:52:37.401Z,5.63
2023-02-06T03:55:05.710Z,4.67
2023-02-06T03:57:32.920Z,4.07
2023-02-06T03:59:58.790Z,5.00
2023-02-06T04:02:25.588Z,5.27
2023-02-06T04:04:51.724Z,5.80
2023-02-06T04:07:19.193Z,6.23
2023-02-06T04:09:45.077Z,4.97
2023-02-06T04:12:11.065Z,4.83
2023-02-06T04:14:36.781Z,4.30
2023-02-06T04:17:03.485Z,4.90
2023-02-06T04:19:29.190Z,5.73
2023-02-06T04:21:54.928Z,4.97
2023-02-06T04:24:20.809Z,5.47
2023-02-06T04:26:46.546Z,5.00
2023-02-06T04:29:12.282Z,6.00
2023-02-06T04:31:38.700Z,5.93
2023-02-06T04:34:04.426Z,5.30
2023-02-06T04:36:30.148Z,4.67
2023-02-06T04:38:55.877Z,3.70
2023-02-06T04:41:21.805Z,4.23
2023-02-06T04:43:47.554Z,4.47
2023-02-06T04:46:13.300Z,5.13
2023-02-06T04:48:39.098Z,5.63
2023-02-06T04:51:04.963Z,5.73
2023-02-06T04:53:30.662Z,5.17
2023-02-06T04:56:06.521Z,4.20
2023-02-06T04:58:32.578Z,5.03
2023-02-06T05:00:58.331Z,4.63
2023-02-06T05:03:24.699Z,4.83
2023-02-06T05:05:51.259Z,4.70
2023-02-06T05:08:16.995Z,5.00
2023-02-06T05:10:42.733Z,4.47
2023-02-06T05:13:08.550Z,4.90
2023-02-06T05:15:35.274Z,4.97
2023-02-06T05:18:01.309Z,4.07
2023-02-06T05:20:27.065Z,4.47
2023-02-06T05:22:52.873Z,6.73
2023-02-06T05:25:18.613Z,5.63
2023-02-06T05:27:44.377Z,6.37
2023-02-06T05:30:10.389Z,5.13
2023-02-06T05:32:36.119Z,6.43
2023-02-06T05:35:01.932Z,5.13
2023-02-06T05:37:27.661Z,5.13
2023-02-06T05:39:53.443Z,6.13
2023-02-06T05:42:19.224Z,5.20
2023-02-06T05:44:45.070Z,5.43
2023-02-06T05:47:10.962Z,5.00
2023-02-06T05:49:47.614Z,5.50
2023-02-06T05:52:14.227Z,6.20
2023-02-06T05:54:40.215Z,6.70
2023-02-06T05:57:06.099Z,6.43
2023-02-06T05:59:32.053Z,6.60
2023-02-06T06:01:58.045Z,5.60
2023-02-06T06:04:24.186Z,5.17
2023-02-06T06:06:50.187Z,5.53
2023-02-06T06:09:16.200Z,5.23
2023-02-06T06:11:42.383Z,5.10
2023-02-06T06:14:08.220Z,5.97
2023-02-06T06:16:34.084Z,5.03
2023-02-06T06:19:01.797Z,4.87
2023-02-06T06:21:30.918Z,6.20
2023-02-06T06:23:57.392Z,5.30
2023-02-06T06:26:27.188Z,5.10
2023-02-06T06:28:53.208Z,5.20
2023-02-06T06:31:19.492Z,6.63
2023-02-06T06:33:45.750Z,6.60
2023-02-06T06:36:14.414Z,5.70
2023-02-06T06:38:40.525Z,5.93
2023-02-06T06:41:06.458Z,6.27
2023-02-06T06:43:33.164Z,6.57
2023-02-06T06:46:04.153Z,6.47
2023-02-06T06:48:30.709Z,7.00
2023-02-06T06:51:09.079Z,7.23
2023-02-06T06:53:39.143Z,6.20
2023-02-06T06:56:06.118Z,7.05
2023-02-06T06:58:32.618Z,7.00
2023-02-06T07:00:58.918Z,7.17
2023-02-06T07:03:27.079Z,7.53
2023-02-06T07:05:53.355Z,6.93
2023-02-06T07:08:19.273Z,7.33
2023-02-06T07:10:46.521Z,8.67
2023-02-06T07:13:12.407Z,8.40
2023-02-06T07:15:38.656Z,9.07
2023-02-06T07:18:05.215Z,8.47
2023-02-06T07:20:31.084Z,8.70
2023-02-06T07:22:58.136Z,9.27
2023-02-06T07:25:24.558Z,8.50
2023-02-06T07:27:50.490Z,8.83
2023-02-06T07:30:16.771Z,8.33
2023-02-06T07:32:43.229Z,8.40
2023-02-06T07:35:09.216Z,7.50
2023-02-06T07:37:35.030Z,8.37
2023-02-06T07:40:00.970Z,9.30
2023-02-06T07:42:26.955Z,9.70
2023-02-06T07:44:52.823Z,8.57
2023-02-06T07:47:18.687Z,9.20
2023-02-06T07:49:44.615Z,9.13
2023-02-06T07:52:11.319Z,8.77
2023-02-06T07:54:37.242Z,8.27
2023-02-06T07:57:03.232Z,9.43
2023-02-06T07:59:29.160Z,8.70
2023-02-06T08:01:54.905Z,9.17
2023-02-06T08:04:21.281Z,9.17
2023-02-06T08:06:47.400Z,11.03
2023-02-06T08:09:17.223Z,9.37
2023-02-06T08:11:43.385Z,8.98
2023-02-06T08:14:09.811Z,9.80
2023-02-06T08:16:36.644Z,9.50
2023-02-06T08:19:02.496Z,8.13
2023-02-06T08:21:53.765Z,8.47
2023-02-06T08:24:19.551Z,8.83
2023-02-06T08:26:45.448Z,8.33
2023-02-06T08:31:56.672Z,8.43
2023-02-06T08:34:22.698Z,8.03
2023-02-06T08:36:49.062Z,8.57
2023-02-06T08:39:15.290Z,9.70
2023-02-06T08:41:42.113Z,10.53
2023-02-06T08:44:16.192Z,9.73
2023-02-06T08:46:46.283Z,9.27
2023-02-06T08:49:17.889Z,8.87
2023-02-06T08:51:50.972Z,9.10
2023-02-06T08:54:21.102Z,9.90
2023-02-06T08:56:47.353Z,9.45
2023-02-06T08:59:16.385Z,9.47
2023-02-06T09:01:45.780Z,10.33
2023-02-06T09:04:12.836Z,9.20
2023-02-06T09:06:40.024Z,9.20
2023-02-06T09:09:12.229Z,10.40
2023-02-06T09:11:38.280Z,10.13
2023-02-06T09:14:05.384Z,10.07
2023-02-06T09:16:38.038Z,11.13
2023-02-06T09:19:06.989Z,10.20
2023-02-06T09:21:35.962Z,10.60
2023-02-06T09:24:08.531Z,11.03
2023-02-06T09:26:44.835Z,10.77
2023-02-06T09:29:20.017Z,10.97
2023-02-06T09:31:46.672Z,10.80
2023-02-06T09:34:12.715Z,10.83
2023-02-06T09:36:38.871Z,11.37
2023-02-06T09:41:59.517Z,10.73
2023-02-06T09:44:31.426Z,11.13
2023-02-06T09:47:04.700Z,12.30
2023-02-06T09:49:43.997Z,12.50
2023-02-06T09:55:23.840Z,12.07
2023-02-06T09:58:08.899Z,12.10
2023-02-06T10:00:55.504Z,11.83
2023-02-06T10:03:43.463Z,13.00
2023-02-06T10:06:15.904Z,12.40
2023-02-06T10:08:44.378Z,12.57
2023-02-06T10:11:19.916Z,11.07
2023-02-06T10:13:57.753Z,11.00
2023-02-06T10:16:29.926Z,11.83
2023-02-06T10:18:58.570Z,10.37
2023-02-06T10:21:34.849Z,11.77
2023-02-06T10:24:20.778Z,10.23
2023-02-06T10:26:49.359Z,11.37
2023-02-06T10:29:23.579Z,9.47
2023-02-06T10:32:08.449Z,8.83
2023-02-06T10:34:42.638Z,10.50
2023-02-06T10:37:20.889Z,9.40
2023-02-06T10:39:56.385Z,9.70
2023-02-06T10:42:41.204Z,11.30
2023-02-06T10:45:24.388Z,11.97
2023-02-06T10:48:10.784Z,8.30
2023-02-06T10:51:06.680Z,9.00
2023-02-06T10:53:34.688Z,9.80
2023-02-06T10:56:14.139Z,10.17
2023-02-06T10:58:42.329Z,10.80
2023-02-06T11:01:24.741Z,9.93
2023-02-06T11:04:01.984Z,10.83
2023-02-06T11:06:28.338Z,10.30
2023-02-06T11:08:54.866Z,11.03
2023-02-06T11:11:20.886Z,9.35
2023-02-06T11:16:33.079Z,11.53
2023-02-06T11:19:09.681Z,10.30
2023-02-06T11:21:50.792Z,10.93
2023-02-06T11:24:18.800Z,10.20
2023-02-06T11:26:48.519Z,8.73
2023-02-06T11:29:17.951Z,9.17
2023-02-06T11:31:46.530Z,8.43
2023-02-06T11:37:32.499Z,10.02
2023-02-06T11:40:20.631Z,9.80
2023-02-06T11:42:51.097Z,10.80
2023-02-06T11:45:21.623Z,9.88
2023-02-06T11:47:48.514Z,7.78
2023-02-06T11:50:46.097Z,10.23
2023-02-06T11:53:20.484Z,9.27
2023-02-06T11:56:00.148Z,10.10
2023-02-06T11:58:27.674Z,7.57
2023-02-06T12:01:00.717Z,9.97
2023-02-06T12:03:45.403Z,9.97
2023-02-06T12:06:27.046Z,8.47
2023-02-06T12:34:55.039Z,12.27
2023-02-06T13:14:31.130Z,11.90
2023-02-06T13:20:01.535Z,13.10
2023-02-06T13:50:45.227Z,12.80
2023-02-06T13:56:05.449Z,14.47
2023-02-06T14:46:48.455Z,13.73
2023-02-06T14:49:21.740Z,15.20
2023-02-06T14:52:12.674Z,14.80
2023-02-06T14:54:39.054Z,16.07
2023-02-06T14:57:18.801Z,14.07
2023-02-06T14:59:52.175Z,14.90
2023-02-06T15:02:23.118Z,15.77
2023-02-06T15:08:03.223Z,17.27
2023-02-06T15:10:32.380Z,15.90
2023-02-06T15:15:56.262Z,17.07
2023-02-06T15:43:08.268Z,13.93
2023-02-06T15:45:38.595Z,15.27
2023-02-06T15:51:23.483Z,12.73
2023-02-06T15:53:51.080Z,15.43
2023-02-06T15:56:20.291Z,14.53
2023-02-06T16:01:55.798Z,14.43
2023-02-06T16:04:24.363Z,13.63
2023-02-06T16:07:14.005Z,14.43
2023-02-06T16:16:08.504Z,13.03
2023-02-06T16:18:48.315Z,12.53
2023-02-06T16:21:18.665Z,11.82
2023-02-06T16:46:51.419Z,12.27
2023-02-06T16:49:25.819Z,12.33
2023-02-06T16:51:53.234Z,13.13
2023-02-06T16:54:31.437Z,11.70
2023-02-06T16:57:12.160Z,11.90
2023-02-06T16:59:38.628Z,13.05
2023-02-06T17:04:59.289Z,12.33
2023-02-06T17:07:27.196Z,13.20
2023-02-06T17:09:55.337Z,12.13
2023-02-06T17:12:22.703Z,11.43
2023-02-06T17:14:49.209Z,11.00
2023-02-06T17:17:20.770Z,11.10
2023-02-06T17:25:45.394Z,12.13
2023-02-06T17:28:13.787Z,10.60
2023-02-06T17:30:40.847Z,12.80
2023-02-06T17:36:14.224Z,12.07
2023-02-06T17:38:45.542Z,14.27
2023-02-06T17:41:14.491Z,13.30
2023-02-06T17:43:41.921Z,12.50
2023-02-06T17:46:09.853Z,12.20
2023-02-06T17:48:42.286Z,12.20
2023-02-06T17:51:08.860Z,12.70
2023-02-06T17:53:36.820Z,12.40
2023-02-06T17:56:07.884Z,11.83
2023-02-06T17:58:34.886Z,12.97
2023-02-06T18:01:01.055Z,11.40
2023-02-06T18:03:26.881Z,11.80
2023-02-06T18:06:11.556Z,12.77
2023-02-06T18:08:38.569Z,12.30
2023-02-06T18:11:15.588Z,12.10
2023-02-06T18:13:42.160Z,12.83
2023-02-06T18:16:12.264Z,14.10
2023-02-06T18:18:43.561Z,13.23
2023-02-06T18:21:09.985Z,13.70
2023-02-06T18:23:36.274Z,13.53
2023-02-06T18:26:03.467Z,14.77
2023-02-06T18:28:29.336Z,12.10
2023-02-06T18:30:56.436Z,12.73
2023-02-06T18:33:22.562Z,11.70
2023-02-06T18:36:07.467Z,13.00
2023-02-06T18:38:34.096Z,13.27
2023-02-06T18:41:04.959Z,14.00
2023-02-06T18:43:31.130Z,12.27
2023-02-06T18:45:57.062Z,12.90
2023-02-06T18:48:27.775Z,13.93
2023-02-06T18:50:58.544Z,14.77
2023-02-06T18:53:25.029Z,13.40
2023-02-06T18:55:58.968Z,13.40
2023-02-06T18:58:25.748Z,15.13
2023-02-06T19:03:34.070Z,14.90
2023-02-06T19:06:25.135Z,12.67
2023-02-06T19:08:51.128Z,14.27
2023-02-06T19:11:19.288Z,13.43
2023-02-06T19:14:01.485Z,15.00
2023-02-06T19:16:27.967Z,16.00
2023-02-06T19:18:54.882Z,14.90
2023-02-06T19:21:21.838Z,15.33
2023-02-06T19:23:52.518Z,16.00
2023-02-06T19:26:18.671Z,15.07
2023-02-06T19:28:44.665Z,15.27
2023-02-06T19:31:11.877Z,15.47
2023-02-06T19:33:39.523Z,17.50
2023-02-06T19:36:14.262Z,16.77
2023-02-06T19:38:40.826Z,15.63
2023-02-06T19:41:20.392Z,18.90
2023-02-06T19:43:46.988Z,18.57
2023-02-06T19:46:15.194Z,17.17
2023-02-06T19:48:43.169Z,18.23
2023-02-06T19:51:13.224Z,17.70
2023-02-06T19:53:44.697Z,17.75
2023-02-06T19:56:17.385Z,18.67
2023-02-06T19:58:43.580Z,17.50
2023-02-06T20:01:10.929Z,16.83
2023-02-06T20:03:37.230Z,17.93
2023-02-06T20:06:15.696Z,16.87
2023-02-06T20:08:42.477Z,17.17
2023-02-06T20:11:09.687Z,17.23
2023-02-06T20:13:37.105Z,18.80
2023-02-06T20:16:04.076Z,16.43
2023-02-06T20:18:31.433Z,19.43
2023-02-06T20:20:57.451Z,20.23
2023-02-06T20:23:23.383Z,21.00
2023-02-06T20:25:49.234Z,19.53
2023-02-06T20:28:15.443Z,18.97
2023-02-06T20:30:42.739Z,18.03
2023-02-06T20:33:11.085Z,19.33
2023-02-06T20:35:48.789Z,17.90
2023-02-06T20:38:27.415Z,16.97
2023-02-06T20:40:53.478Z,19.77
2023-02-06T20:43:19.406Z,17.50
2023-02-06T20:45:45.270Z,17.53
2023-02-06T20:48:11.087Z,18.37
2023-02-06T20:50:37.989Z,18.13
2023-02-06T20:53:03.926Z,19.27
2023-02-06T20:55:29.906Z,19.00
2023-02-06T20:57:55.682Z,18.83
2023-02-06T21:00:21.591Z,18.07
2023-02-06T21:02:47.387Z,16.43
2023-02-06T21:05:35.209Z,20.97
2023-02-06T21:08:01.058Z,20.10
2023-02-06T21:10:27.823Z,18.97
2023-02-06T21:12:53.849Z,16.90
2023-02-06T21:15:19.748Z,18.07
2023-02-06T21:17:45.645Z,17.97
2023-02-06T21:20:11.609Z,16.90
2023-02-06T21:22:38.260Z,17.33
2023-02-06T21:25:04.578Z,18.13
2023-02-06T21:27:31.498Z,19.23
2023-02-06T21:29:57.447Z,20.27
2023-02-06T21:32:23.376Z,18.33
2023-02-06T21:34:52.285Z,18.17
2023-02-06T21:37:18.172Z,18.10
2023-02-06T21:39:44.124Z,18.63
2023-02-06T21:42:10.841Z,19.13
2023-02-06T21:44:38.270Z,20.17
2023-02-06T21:47:04.492Z,31.97
2023-02-06T21:49:33.304Z,31.30
2023-02-06T21:51:59.231Z,23.77
2023-02-06T21:54:25.153Z,20.07
2023-02-06T21:56:51.100Z,17.87
2023-02-06T21:59:17.362Z,18.70
2023-02-06T22:01:43.313Z,21.57
2023-02-06T22:04:10.666Z,20.87
2023-02-06T22:06:37.037Z,21.60
2023-02-06T22:09:06.994Z,19.53
2023-02-06T22:11:33.962Z,20.67
2023-02-06T22:14:01.272Z,19.73
2023-02-06T22:16:28.039Z,19.33
2023-02-06T22:18:54.358Z,21.60
2023-02-06T22:21:21.078Z,21.73
2023-02-06T22:23:47.589Z,21.20
2023-02-06T22:26:14.408Z,23.30
2023-02-06T22:28:40.684Z,21.33
2023-02-06T22:31:07.900Z,23.53
2023-02-06T22:33:34.209Z,19.17
2023-02-06T22:36:06.527Z,20.17
2023-02-06T22:38:32.751Z,21.33
2023-02-06T22:41:02.550Z,21.93
2023-02-06T22:43:28.959Z,19.48
2023-02-06T22:45:54.873Z,19.20
2023-02-06T22:48:20.982Z,19.67
2023-02-06T22:50:46.855Z,18.97
2023-02-06T22:53:31.185Z,21.40
2023-02-06T22:56:16.014Z,19.70
2023-02-06T22:58:41.854Z,18.13
2023-02-06T23:01:07.662Z,17.77
2023-02-06T23:03:33.691Z,18.13
2023-02-06T23:06:03.101Z,17.97
2023-02-06T23:08:28.864Z,18.03
2023-02-06T23:10:54.596Z,19.73
2023-02-06T23:13:20.324Z,19.57
2023-02-06T23:15:46.087Z,18.97
2023-02-06T23:18:11.936Z,19.70
2023-02-06T23:20:37.670Z,19.90
2023-02-06T23:23:03.607Z,20.07
2023-02-06T23:25:29.643Z,18.57
2023-02-06T23:27:55.451Z,18.47
2023-02-06T23:30:21.209Z,16.67
2023-02-06T23:32:47.124Z,19.13
2023-02-06T23:35:12.867Z,18.50
2023-02-06T23:37:38.672Z,16.90
2023-02-06T23:40:04.790Z,16.37
2023-02-06T23:42:30.826Z,17.40
2023-02-06T23:44:56.539Z,18.40
2023-02-06T23:47:22.317Z,18.97
2023-02-06T23:49:48.148Z,18.47
2023-02-06T23:52:13.852Z,20.90
2023-02-06T23:54:39.604Z,17.13
2023-02-06T23:57:05.323Z,17.97
2023-02-06T23:59:31.068Z,18.93
